Terminal Aerodrome Forecast
Issued by NWS Cleveland, OH

Home | Current Version | Previous Version | Text Only | Print | Product List | Glossary Off
Versions: 1 2 3 4 5 6 7 8 9 10 11 12 13 14 15 16 17 18 19 20 21

659
FTUS41 KCLE 250533
TAFCLE
TAF
KCLE 250533Z 2506/2612 14012KT P6SM BKN050 OVC150
     FM251500 13012G20KT P6SM BKN040
     FM260100 14008KT P6SM BKN050=

USA.gov is the U.S. government's official web portal to all federal, state and local government web resources and services.